createdAt,value
2022-10-26T00:00:51.837Z,7.43
2022-10-26T00:03:19.140Z,5.72
2022-10-26T00:05:45.737Z,3.70
2022-10-26T00:08:13.294Z,4.55
2022-10-26T00:10:40.141Z,6.43
2022-10-26T00:13:10.178Z,4.03
2022-10-26T00:15:40.214Z,3.10
2022-10-26T00:18:06.592Z,7.07
2022-10-26T00:20:33.109Z,2.83
2022-10-26T00:22:59.499Z,3.33
2022-10-26T00:25:25.899Z,4.28
2022-10-26T00:27:52.735Z,4.75
2022-10-26T00:30:19.129Z,4.97
2022-10-26T00:32:45.528Z,4.53
2022-10-26T00:35:22.871Z,3.28
2022-10-26T00:37:55.039Z,5.50
2022-10-26T00:40:21.613Z,4.15
2022-10-26T00:42:48.138Z,5.78
2022-10-26T00:45:24.485Z,3.65
2022-10-26T00:47:52.741Z,4.35
2022-10-26T00:50:27.604Z,2.90
2022-10-26T00:52:55.024Z,2.90
2022-10-26T00:55:25.230Z,6.82
2022-10-26T00:57:53.343Z,6.33
2022-10-26T01:00:20.485Z,5.88
2022-10-26T01:02:50.819Z,4.20
2022-10-26T01:05:19.096Z,4.15
2022-10-26T01:07:47.827Z,6.43
2022-10-26T01:10:15.186Z,5.13
2022-10-26T01:12:42.283Z,3.72
2022-10-26T01:15:09.356Z,2.10
2022-10-26T01:17:54.443Z,2.85
2022-10-26T01:20:43.402Z,3.53
2022-10-26T01:23:34.071Z,2.45
2022-10-26T01:26:16.889Z,3.63
2022-10-26T01:29:04.921Z,3.85
2022-10-26T01:31:41.067Z,4.85
2022-10-26T01:34:15.971Z,4.53
2022-10-26T01:36:55.212Z,4.78
2022-10-26T01:39:52.439Z,2.47
2022-10-26T01:42:21.638Z,6.82
2022-10-26T01:44:53.355Z,10.00
2022-10-26T01:47:22.031Z,10.77
2022-10-26T01:49:53.391Z,11.00
2022-10-26T01:52:20.434Z,8.65
2022-10-26T01:54:46.863Z,6.20
2022-10-26T01:57:17.846Z,5.25
2022-10-26T02:00:10.500Z,4.88
2022-10-26T02:02:54.735Z,6.93
2022-10-26T02:05:36.749Z,9.57
2022-10-26T02:08:23.712Z,7.60
2022-10-26T02:11:10.010Z,5.88
2022-10-26T02:13:56.862Z,4.85
2022-10-26T02:16:58.119Z,7.90
2022-10-26T02:19:44.456Z,12.75
2022-10-26T02:22:26.149Z,12.30
2022-10-26T02:24:54.016Z,10.70
2022-10-26T02:27:24.687Z,12.15
2022-10-26T02:29:53.797Z,12.30
2022-10-26T02:32:22.158Z,11.23
2022-10-26T02:34:51.430Z,11.93
2022-10-26T02:37:21.270Z,11.27
2022-10-26T02:39:51.376Z,10.02
2022-10-26T02:42:18.927Z,12.90
2022-10-26T02:44:51.473Z,13.05
2022-10-26T02:47:19.491Z,8.75
2022-10-26T02:49:45.950Z,10.50
2022-10-26T02:52:18.380Z,9.25
2022-10-26T02:55:00.697Z,11.30
2022-10-26T02:57:34.114Z,8.50
2022-10-26T03:00:01.705Z,11.55
2022-10-26T03:02:30.087Z,7.85
2022-10-26T03:04:56.489Z,15.40
2022-10-26T03:07:23.895Z,11.68
2022-10-26T03:09:50.627Z,10.77
2022-10-26T03:12:17.623Z,12.57
2022-10-26T03:14:44.031Z,13.55
2022-10-26T03:17:10.429Z,11.07
2022-10-26T03:19:36.821Z,12.15
2022-10-26T03:22:03.223Z,12.57
2022-10-26T03:24:29.629Z,15.93
2022-10-26T03:26:58.273Z,12.02
2022-10-26T03:29:27.572Z,11.50
2022-10-26T03:31:55.238Z,11.73
2022-10-26T03:34:21.727Z,10.60
2022-10-26T03:36:48.311Z,14.20
2022-10-26T03:39:14.802Z,13.23
2022-10-26T03:41:41.258Z,9.90
2022-10-26T03:44:07.716Z,11.82
2022-10-26T03:46:34.093Z,10.13
2022-10-26T03:49:00.486Z,9.20
2022-10-26T03:51:28.028Z,10.30
2022-10-26T03:53:54.422Z,9.05
2022-10-26T03:56:20.808Z,11.25
2022-10-26T03:58:47.187Z,10.52
2022-10-26T04:01:13.627Z,18.67
2022-10-26T04:03:40.034Z,37.17
2022-10-26T04:06:06.422Z,15.85
2022-10-26T04:08:32.831Z,20.08
2022-10-26T04:11:02.360Z,9.18
2022-10-26T04:13:30.969Z,9.07
2022-10-26T04:15:57.516Z,10.43
2022-10-26T04:18:23.906Z,10.18
2022-10-26T04:20:50.310Z,10.32
2022-10-26T04:23:18.535Z,9.65
2022-10-26T04:25:45.324Z,10.57
2022-10-26T04:28:13.518Z,10.45
2022-10-26T04:30:40.552Z,7.68
2022-10-26T04:33:07.479Z,6.32
2022-10-26T04:35:33.950Z,7.65
2022-10-26T04:38:01.871Z,8.55
2022-10-26T04:40:29.341Z,6.70
2022-10-26T04:42:55.939Z,7.38
2022-10-26T04:45:22.578Z,6.68
2022-10-26T04:48:02.842Z,6.63
2022-10-26T04:50:29.318Z,5.07
2022-10-26T04:52:55.861Z,7.25
2022-10-26T04:55:22.399Z,7.55
2022-10-26T04:57:49.121Z,8.02
2022-10-26T05:00:15.895Z,9.90
2022-10-26T05:02:42.335Z,14.13
2022-10-26T05:05:11.350Z,11.70
2022-10-26T05:07:40.574Z,13.80
2022-10-26T05:10:07.626Z,12.75
2022-10-26T05:12:34.010Z,12.88
2022-10-26T05:15:02.943Z,10.95
2022-10-26T05:17:31.556Z,11.23
2022-10-26T05:20:00.197Z,11.93
2022-10-26T05:22:26.651Z,9.35
2022-10-26T05:24:53.095Z,8.88
2022-10-26T05:27:19.498Z,8.88
2022-10-26T05:29:45.891Z,8.88
2022-10-26T05:32:12.301Z,7.47
2022-10-26T05:34:40.845Z,8.75
2022-10-26T05:37:08.043Z,10.55
2022-10-26T05:39:34.427Z,20.33
2022-10-26T05:42:00.831Z,9.07
2022-10-26T05:44:27.395Z,11.40
2022-10-26T05:46:53.809Z,20.38
2022-10-26T05:49:20.223Z,33.20
2022-10-26T05:51:46.607Z,27.15
2022-10-26T05:54:14.001Z,23.25
2022-10-26T05:56:41.562Z,9.13
2022-10-26T05:59:13.767Z,9.13
2022-10-26T06:01:53.844Z,11.60
2022-10-26T06:04:31.513Z,11.50
2022-10-26T06:06:59.159Z,10.15
2022-10-26T06:09:26.051Z,10.90
2022-10-26T06:11:52.720Z,11.88
2022-10-26T06:14:19.313Z,10.82
2022-10-26T06:16:58.040Z,17.02
2022-10-26T06:19:43.968Z,13.25
2022-10-26T06:22:33.709Z,11.23
2022-10-26T06:25:12.684Z,22.38
2022-10-26T06:27:50.565Z,14.57
2022-10-26T06:30:23.389Z,12.43
2022-10-26T06:32:57.387Z,11.73
2022-10-26T06:35:41.598Z,16.02
2022-10-26T06:38:13.225Z,13.10
2022-10-26T06:40:42.433Z,11.20
2022-10-26T06:43:26.034Z,15.00
2022-10-26T06:46:11.427Z,12.52
2022-10-26T06:48:56.602Z,13.98
2022-10-26T06:51:24.897Z,11.77
2022-10-26T06:54:03.187Z,12.30
2022-10-26T06:56:29.778Z,12.25
2022-10-26T06:59:06.286Z,12.73
2022-10-26T07:01:33.586Z,14.98
2022-10-26T07:04:00.046Z,12.52
2022-10-26T07:06:26.465Z,16.45
2022-10-26T07:08:52.839Z,13.63
2022-10-26T07:11:19.228Z,16.65
2022-10-26T07:13:45.607Z,14.32
2022-10-26T07:16:12.031Z,16.65
2022-10-26T07:18:38.431Z,13.88
2022-10-26T07:21:04.893Z,12.55
2022-10-26T07:23:31.302Z,14.05
2022-10-26T07:26:00.060Z,13.25
2022-10-26T07:28:26.529Z,14.10
2022-10-26T07:30:56.209Z,14.10
2022-10-26T07:33:22.753Z,15.57
2022-10-26T07:35:49.283Z,14.07
2022-10-26T07:38:15.698Z,12.95
2022-10-26T07:40:42.094Z,11.02
2022-10-26T07:43:08.606Z,14.35
2022-10-26T07:45:36.673Z,12.77
2022-10-26T07:48:03.313Z,13.55
2022-10-26T07:50:29.716Z,12.20
2022-10-26T07:52:58.474Z,11.73
2022-10-26T07:55:24.923Z,13.85
2022-10-26T07:57:54.452Z,10.75
2022-10-26T08:00:21.869Z,11.50
2022-10-26T08:02:48.379Z,11.38
2022-10-26T08:05:14.817Z,11.38
2022-10-26T08:07:43.694Z,11.63
2022-10-26T08:10:15.873Z,12.52
2022-10-26T08:12:43.612Z,15.82
2022-10-26T08:15:10.206Z,11.90
2022-10-26T08:17:36.595Z,12.80
2022-10-26T08:20:03.299Z,13.35
2022-10-26T08:22:30.626Z,16.17
2022-10-26T08:24:57.256Z,12.88
2022-10-26T08:27:23.716Z,13.48
2022-10-26T08:29:50.116Z,14.52
2022-10-26T08:32:16.514Z,15.65
2022-10-26T08:34:42.891Z,13.43
2022-10-26T08:37:09.283Z,14.65
2022-10-26T08:39:35.666Z,13.73
2022-10-26T08:42:13.855Z,13.15
2022-10-26T08:44:47.011Z,13.05
2022-10-26T08:47:30.485Z,10.15
2022-10-26T08:50:01.931Z,13.63
2022-10-26T08:52:36.601Z,14.00
2022-10-26T08:55:07.357Z,19.38
2022-10-26T08:57:42.211Z,11.80
2022-10-26T09:00:15.611Z,13.82
2022-10-26T09:02:42.025Z,17.55
2022-10-26T09:05:16.589Z,11.43
2022-10-26T09:08:18.615Z,11.50
2022-10-26T09:11:08.181Z,19.60
2022-10-26T09:13:49.211Z,19.27
2022-10-26T09:19:04.003Z,14.80
2022-10-26T09:21:33.075Z,15.00
2022-10-26T09:24:06.922Z,11.18
2022-10-26T09:26:54.779Z,16.58
2022-10-26T09:29:29.852Z,14.88
2022-10-26T09:32:00.103Z,10.85
2022-10-26T09:34:48.380Z,18.50
2022-10-26T09:37:19.918Z,9.77
2022-10-26T09:39:56.686Z,12.05
2022-10-26T09:42:31.759Z,12.15
2022-10-26T09:45:05.350Z,8.73
2022-10-26T09:47:36.988Z,10.20
2022-10-26T09:50:25.059Z,10.13
2022-10-26T09:52:51.818Z,12.82
2022-10-26T09:55:18.840Z,12.05
2022-10-26T09:57:47.684Z,11.52
2022-10-26T10:00:16.211Z,8.68
2022-10-26T10:02:44.970Z,12.68
2022-10-26T10:05:52.427Z,11.73
2022-10-26T10:08:23.135Z,8.18
2022-10-26T10:10:59.983Z,12.32
2022-10-26T10:13:29.083Z,11.23
2022-10-26T10:16:02.080Z,12.30
2022-10-26T10:18:28.704Z,10.85
2022-10-26T10:20:57.508Z,8.85
2022-10-26T10:23:30.235Z,7.07
2022-10-26T10:26:02.758Z,9.10
2022-10-26T10:28:29.666Z,10.43
2022-10-26T10:31:01.479Z,4.72
2022-10-26T10:33:40.366Z,6.25
2022-10-26T10:36:32.245Z,11.85
2022-10-26T10:38:59.864Z,5.30
2022-10-26T10:41:32.492Z,9.13
2022-10-26T10:44:07.770Z,11.40
2022-10-26T10:46:35.101Z,6.05
2022-10-26T10:49:04.567Z,7.90
2022-10-26T10:51:38.631Z,5.07
2022-10-26T10:54:06.843Z,5.65
2022-10-26T10:56:36.025Z,8.75
2022-10-26T10:59:33.725Z,3.25
2022-10-26T11:02:23.577Z,6.40
2022-10-26T11:05:07.947Z,4.00
2022-10-26T11:07:47.034Z,4.05
2022-10-26T11:10:17.712Z,6.65
2022-10-26T11:12:51.712Z,6.25
2022-10-26T11:15:22.479Z,7.40
2022-10-26T11:18:04.053Z,5.65
2022-10-26T11:20:33.512Z,4.25
2022-10-26T11:23:13.022Z,3.55
2022-10-26T11:25:50.113Z,7.03
2022-10-26T11:28:29.397Z,6.72
2022-10-26T11:31:02.721Z,3.90
2022-10-26T11:33:37.127Z,3.60
2022-10-26T11:36:09.294Z,2.95
2022-10-26T11:38:56.354Z,5.22
2022-10-26T11:41:34.974Z,6.72
2022-10-26T11:44:34.413Z,3.75
2022-10-26T11:47:12.136Z,5.00
2022-10-26T11:49:55.855Z,3.90
2022-10-26T11:52:34.380Z,7.05
2022-10-26T11:55:02.655Z,7.15
2022-10-26T11:57:33.943Z,4.55
2022-10-26T12:00:07.478Z,3.85
2022-10-26T12:05:42.344Z,5.43
2022-10-26T12:08:15.632Z,6.97
2022-10-26T12:10:48.987Z,4.47
2022-10-26T12:13:27.310Z,3.78
2022-10-26T12:16:04.822Z,7.43
2022-10-26T12:18:56.065Z,4.07
2022-10-26T12:21:31.413Z,2.83
2022-10-26T12:24:02.665Z,6.65
2022-10-26T12:26:28.982Z,7.70
2022-10-26T12:29:01.368Z,8.50
2022-10-26T12:31:37.069Z,3.17
2022-10-26T12:34:45.227Z,4.88
2022-10-26T12:37:28.524Z,4.80
2022-10-26T12:39:54.913Z,10.30
2022-10-26T12:42:30.026Z,3.28
2022-10-26T12:44:59.426Z,5.32
2022-10-26T12:47:28.786Z,2.92
2022-10-26T12:50:07.543Z,6.53
2022-10-26T12:52:56.491Z,5.85
2022-10-26T12:55:48.611Z,5.28
2022-10-26T12:58:22.550Z,3.78
2022-10-26T13:01:21.487Z,7.43
2022-10-26T13:04:14.805Z,7.05
2022-10-26T13:06:54.533Z,4.95
2022-10-26T13:09:24.193Z,3.05
2022-10-26T13:11:55.282Z,5.22
2022-10-26T13:14:25.690Z,8.52
2022-10-26T13:16:52.597Z,12.13
2022-10-26T13:19:30.866Z,5.07
2022-10-26T13:21:59.792Z,6.53
2022-10-26T13:24:30.295Z,5.03
2022-10-26T13:27:08.000Z,8.07
2022-10-26T13:30:03.280Z,5.88
2022-10-26T13:32:38.788Z,9.20
2022-10-26T13:35:10.805Z,2.70
2022-10-26T13:37:43.833Z,4.82
2022-10-26T13:40:18.290Z,5.22
2022-10-26T13:42:48.487Z,3.65
2022-10-26T13:45:21.507Z,4.90
2022-10-26T13:47:55.083Z,4.60
2022-10-26T13:50:27.662Z,4.95
2022-10-26T13:53:01.171Z,3.05
2022-10-26T13:55:50.457Z,5.60
2022-10-26T13:58:43.134Z,5.95
2022-10-26T14:01:09.924Z,4.65
2022-10-26T14:03:37.296Z,5.20
2022-10-26T14:06:06.563Z,4.68
2022-10-26T14:08:32.953Z,3.35
2022-10-26T14:10:59.819Z,5.60
2022-10-26T14:13:28.792Z,5.50
2022-10-26T14:15:57.235Z,2.75
2022-10-26T14:18:30.441Z,5.80
2022-10-26T14:21:01.690Z,6.22
2022-10-26T14:23:46.155Z,4.97
2022-10-26T14:26:24.612Z,7.70
2022-10-26T14:28:55.543Z,2.60
2022-10-26T14:31:26.653Z,6.35
2022-10-26T14:33:54.630Z,4.60
2022-10-26T14:36:26.526Z,3.72
2022-10-26T14:38:59.412Z,5.13
2022-10-26T14:41:27.124Z,3.75
2022-10-26T14:43:56.232Z,5.13
2022-10-26T14:46:22.824Z,5.03
2022-10-26T14:48:57.552Z,3.85
2022-10-26T14:51:28.862Z,4.18
2022-10-26T14:53:58.383Z,5.78
2022-10-26T14:56:31.778Z,5.35
2022-10-26T14:58:58.974Z,6.68
2022-10-26T15:01:30.269Z,6.45
2022-10-26T15:04:07.475Z,7.28
2022-10-26T15:06:42.685Z,5.40
2022-10-26T15:09:38.891Z,8.60
2022-10-26T15:12:06.404Z,5.22
2022-10-26T15:14:34.246Z,7.07
2022-10-26T15:17:00.809Z,7.35
2022-10-26T15:19:27.880Z,5.53
2022-10-26T15:21:54.770Z,10.18
2022-10-26T15:24:21.083Z,4.93
2022-10-26T15:26:48.055Z,7.95
2022-10-26T15:29:41.034Z,8.02
2022-10-26T15:32:19.071Z,7.00
2022-10-26T15:35:19.398Z,7.60
2022-10-26T15:37:46.688Z,5.57
2022-10-26T15:40:14.045Z,6.88
2022-10-26T15:42:41.636Z,6.28
2022-10-26T15:45:21.726Z,8.02
2022-10-26T15:47:49.032Z,6.53
2022-10-26T15:50:17.588Z,9.38
2022-10-26T15:52:46.676Z,4.05
2022-10-26T15:55:16.450Z,5.43
2022-10-26T15:57:43.196Z,5.88
2022-10-26T16:00:15.132Z,8.00
2022-10-26T16:02:42.637Z,5.72
2022-10-26T16:05:09.424Z,7.82
2022-10-26T16:07:35.790Z,5.38
2022-10-26T16:10:02.268Z,5.07
2022-10-26T16:12:28.653Z,8.07
2022-10-26T16:15:22.195Z,9.10
2022-10-26T16:17:49.582Z,4.95
2022-10-26T16:20:22.986Z,9.48
2022-10-26T16:22:51.905Z,6.57
2022-10-26T16:25:21.683Z,5.85
2022-10-26T16:27:49.569Z,6.38
2022-10-26T16:30:16.927Z,5.13
2022-10-26T16:32:43.550Z,9.38
2022-10-26T16:35:11.340Z,7.72
2022-10-26T16:37:38.122Z,5.85
2022-10-26T16:40:06.125Z,12.80
2022-10-26T16:42:32.766Z,9.73
2022-10-26T16:45:02.532Z,7.13
2022-10-26T16:47:29.475Z,8.20
2022-10-26T16:49:55.861Z,10.68
2022-10-26T16:52:22.267Z,7.80
2022-10-26T16:54:48.671Z,12.00
2022-10-26T16:57:15.486Z,11.98
2022-10-26T16:59:41.943Z,6.07
2022-10-26T17:02:09.935Z,6.82
2022-10-26T17:04:36.386Z,8.15
2022-10-26T17:07:02.765Z,8.07
2022-10-26T17:09:29.521Z,7.55
2022-10-26T17:12:00.953Z,6.68
2022-10-26T17:14:28.341Z,8.23
2022-10-26T17:16:54.743Z,8.25
2022-10-26T17:19:21.162Z,10.55
2022-10-26T17:21:47.554Z,8.90
2022-10-26T17:24:14.194Z,5.68
2022-10-26T17:26:41.107Z,7.35
2022-10-26T17:29:07.558Z,6.55
2022-10-26T17:31:33.951Z,8.77
2022-10-26T17:34:00.374Z,10.60
2022-10-26T17:36:27.264Z,10.23
2022-10-26T17:38:55.158Z,7.65
2022-10-26T17:41:22.535Z,12.80
2022-10-26T17:43:51.722Z,8.85
2022-10-26T17:46:20.792Z,6.55
2022-10-26T17:48:47.255Z,5.70
2022-10-26T17:51:16.107Z,6.97
2022-10-26T17:53:42.925Z,7.80
2022-10-26T17:56:16.163Z,11.88
2022-10-26T17:58:42.602Z,9.15
2022-10-26T18:01:11.341Z,5.80
2022-10-26T18:03:38.922Z,13.38
2022-10-26T18:06:09.431Z,14.60
2022-10-26T18:08:37.191Z,20.23
2022-10-26T18:11:04.967Z,17.90
2022-10-26T18:13:33.899Z,16.70
2022-10-26T18:16:07.907Z,15.27
2022-10-26T18:18:34.955Z,18.95
2022-10-26T18:21:06.798Z,28.20
2022-10-26T18:23:33.250Z,21.45
2022-10-26T18:26:02.679Z,29.25
2022-10-26T18:28:29.231Z,24.42
2022-10-26T18:31:00.933Z,22.98
2022-10-26T18:33:27.501Z,18.20
2022-10-26T18:35:53.889Z,21.33
2022-10-26T18:38:20.631Z,21.42
2022-10-26T18:40:53.222Z,19.83
2022-10-26T18:43:19.696Z,20.50
2022-10-26T18:45:47.859Z,17.45
2022-10-26T18:48:14.936Z,18.80
2022-10-26T18:50:41.720Z,15.15
2022-10-26T18:53:12.581Z,17.30
2022-10-26T18:58:10.751Z,19.65
2022-10-26T19:00:38.845Z,14.18
2022-10-26T19:03:06.893Z,17.45
2022-10-26T19:05:34.990Z,13.63
2022-10-26T19:08:01.408Z,17.58
2022-10-26T19:10:27.831Z,15.88
2022-10-26T19:12:54.459Z,14.23
2022-10-26T19:15:21.357Z,14.45
2022-10-26T19:17:47.750Z,13.45
2022-10-26T19:20:14.182Z,13.48
2022-10-26T19:22:40.583Z,13.52
2022-10-26T19:25:07.615Z,12.70
2022-10-26T19:27:33.996Z,13.70
2022-10-26T19:30:00.530Z,15.77
2022-10-26T19:32:28.580Z,13.98
2022-10-26T19:34:54.999Z,11.07
2022-10-26T19:37:23.679Z,13.02
2022-10-26T19:39:54.353Z,17.88
2022-10-26T19:42:20.756Z,11.13
2022-10-26T19:44:47.145Z,11.90
2022-10-26T19:47:13.553Z,10.73
2022-10-26T19:49:39.960Z,13.52
2022-10-26T19:52:06.404Z,13.05
2022-10-26T19:54:32.834Z,14.93
2022-10-26T19:56:59.275Z,23.80
2022-10-26T19:59:26.724Z,24.98
2022-10-26T20:01:53.205Z,13.55
2022-10-26T20:04:19.705Z,14.27
2022-10-26T20:06:46.413Z,12.48
2022-10-26T20:09:12.851Z,14.30
2022-10-26T20:11:42.878Z,13.52
2022-10-26T20:14:09.907Z,14.57
2022-10-26T20:16:36.292Z,16.35
2022-10-26T20:19:02.720Z,14.48
2022-10-26T20:21:29.179Z,13.98
2022-10-26T20:23:55.585Z,15.45
2022-10-26T20:26:23.368Z,13.55
2022-10-26T20:28:51.658Z,12.90
2022-10-26T20:31:18.332Z,10.15
2022-10-26T20:33:44.741Z,12.27
2022-10-26T20:36:11.144Z,12.93
2022-10-26T20:38:39.051Z,13.88
2022-10-26T20:41:07.977Z,15.02
2022-10-26T20:43:41.162Z,11.57
2022-10-26T20:48:38.592Z,17.17
2022-10-26T20:51:14.369Z,8.50
2022-10-26T20:53:50.167Z,14.85
2022-10-26T20:56:26.033Z,16.25
2022-10-26T20:58:57.645Z,10.70
2022-10-26T21:01:27.327Z,9.55
2022-10-26T21:03:55.466Z,10.40
2022-10-26T21:06:22.768Z,9.90
2022-10-26T21:08:50.751Z,9.07
2022-10-26T21:11:18.061Z,8.95
2022-10-26T21:13:46.654Z,8.57
2022-10-26T21:16:13.545Z,7.65
2022-10-26T21:18:40.157Z,9.77
2022-10-26T21:21:06.790Z,6.25
2022-10-26T21:23:36.637Z,6.28
2022-10-26T21:26:04.013Z,6.38
2022-10-26T21:28:47.335Z,5.32
2022-10-26T21:31:16.317Z,5.85
2022-10-26T21:33:43.306Z,4.80
2022-10-26T21:36:12.231Z,4.43
2022-10-26T21:38:40.075Z,5.15
2022-10-26T21:41:11.689Z,5.10
2022-10-26T21:43:40.016Z,4.03
2022-10-26T21:46:07.153Z,4.45
2022-10-26T21:48:34.653Z,4.18
2022-10-26T21:51:11.274Z,4.43
2022-10-26T21:53:37.659Z,5.05
2022-10-26T21:56:09.744Z,5.85
2022-10-26T21:58:36.752Z,4.10
2022-10-26T22:01:06.494Z,4.18
2022-10-26T22:03:33.255Z,5.88
2022-10-26T22:05:59.770Z,4.45
2022-10-26T22:08:26.225Z,4.65
2022-10-26T22:10:52.668Z,6.15
2022-10-26T22:13:19.061Z,4.00
2022-10-26T22:15:45.581Z,4.72
2022-10-26T22:18:11.969Z,4.03
2022-10-26T22:20:38.404Z,4.57
2022-10-26T22:25:36.107Z,6.53
2022-10-26T22:28:02.503Z,4.53
2022-10-26T22:30:28.890Z,4.20
2022-10-26T22:32:55.295Z,4.45
2022-10-26T22:35:29.384Z,8.20
2022-10-26T22:37:57.100Z,5.20
2022-10-26T22:40:23.499Z,7.05
2022-10-26T22:42:53.499Z,6.57
2022-10-26T22:45:20.048Z,6.00
2022-10-26T22:47:46.443Z,6.63
2022-10-26T22:50:12.817Z,5.65
2022-10-26T22:52:39.208Z,8.52
2022-10-26T22:55:05.933Z,7.60
2022-10-26T22:57:32.325Z,11.15
2022-10-26T22:59:58.717Z,8.63
2022-10-26T23:02:25.196Z,7.85
2022-10-26T23:04:51.600Z,9.20
2022-10-26T23:07:17.986Z,7.07
2022-10-26T23:09:44.358Z,6.35
2022-10-26T23:12:10.748Z,9.52
2022-10-26T23:14:37.130Z,9.27
2022-10-26T23:17:03.838Z,6.70
2022-10-26T23:19:30.239Z,6.65
2022-10-26T23:21:56.627Z,6.95
2022-10-26T23:24:23.069Z,6.32
2022-10-26T23:26:49.457Z,11.60
2022-10-26T23:29:16.394Z,5.57
2022-10-26T23:31:42.771Z,6.22
2022-10-26T23:34:09.273Z,14.80
2022-10-26T23:36:35.659Z,8.55
2022-10-26T23:39:02.047Z,10.73
2022-10-26T23:41:28.907Z,7.32
2022-10-26T23:43:55.289Z,13.90
2022-10-26T23:46:21.698Z,7.40
2022-10-26T23:48:48.178Z,6.28
2022-10-26T23:51:14.564Z,9.05
2022-10-26T23:53:40.992Z,5.38
2022-10-26T23:56:07.739Z,4.75
2022-10-26T23:58:34.142Z,8.02
